Time;durP1;ratioP1;P1;durP2;ratioP2;P2;SDS_P1;SDS_P2;PMS_P1;PMS_P2;Temp;Humidity;BMP_temperature;BMP_pressure;BME280_temperature;BME280_humidity;BME280_pressure;Samples;Min_cycle;Max_cycle;Signal;HPM_P1;HPM_P2
2021/06/19 00:00:52;;;;;;;;;;;;;;;;;;3554910;27;19927;-41
2021/06/19 00:02:33;;;;;;;;;;;;;;;;;;3553664;27;19926;-41
2021/06/19 00:04:14;;;;;;;;;;;;;;;;;;3556154;27;20085;-41
2021/06/19 00:05:55;;;;;;;;;;;;;;;;;;3557393;27;19998;-41
2021/06/19 00:07:36;;;;;;;;;;;;;;;;;;3556185;27;19950;-41
2021/06/19 00:09:17;;;;;;;;;;;;;;;;;;3554239;27;20403;-41
2021/06/19 00:10:58;;;;;;;;;;;;;;;;;;3553781;27;19969;-41
2021/06/19 00:12:39;;;;;;;;;;;;;;;;;;3554883;27;20307;-41
2021/06/19 00:14:20;;;;;;;;;;;;;;;;;;3551945;27;19933;-41
2021/06/19 00:16:01;;;;;;;;;;;;;;;;;;3555883;27;20459;-41
2021/06/19 00:17:42;;;;;;;;;;;;;;;;;;3553444;27;19927;-41
2021/06/19 00:19:23;;;;;;;;;;;;;;;;;;3553222;27;20021;-41
2021/06/19 00:21:04;;;;;;;;;;;;;;;;;;3554901;27;19952;-41
2021/06/19 00:22:44;;;;;;;;;;;;;;;;;;3553898;27;19927;-41
2021/06/19 00:24:25;;;;;;;;;;;;;;;;;;3556031;27;19930;-41
2021/06/19 00:26:06;;;;;;;;;;;;;;;;;;3553466;27;19966;-41
2021/06/19 00:27:47;;;;;;;;;;;;;;;;;;3553181;27;20018;-41
2021/06/19 00:29:30;;;;;;;;;;;;;;;;;;3553336;27;19938;-41
2021/06/19 00:31:11;;;;;;;;;;;;;;;;;;3554779;27;20399;-41
2021/06/19 00:32:52;;;;;;;;;;;;;;;;;;3554868;27;19934;-41
2021/06/19 00:34:32;;;;;;;;;;;;;;;;;;3554417;27;20410;-41
2021/06/19 00:36:13;;;;;;;;;;;;;;;;;;3554752;27;20013;-41
2021/06/19 00:37:54;;;;;;;;;;;;;;;;;;3553318;27;20341;-41
2021/06/19 00:39:35;;;;;;;;;;;;;;;;;;3554133;27;19979;-41
2021/06/19 00:41:16;;;;;;;;;;;;;;;;;;3553045;27;20021;-41
2021/06/19 00:42:57;;;;;;;;;;;;;;;;;;3555703;27;19982;-41
2021/06/19 00:44:39;;;;;;;;;;;;;;;;;;3554034;27;19965;-41
2021/06/19 00:46:19;;;;;;;;;;;;;;;;;;3554725;27;19962;-41
2021/06/19 00:48:00;;;;;;;;;;;;;;;;;;3555937;27;19926;-41
2021/06/19 00:49:41;;;;;;;;;;;;;;;;;;3552835;27;19937;-41
2021/06/19 00:51:22;;;;;;;;;;;;;;;;;;3555754;27;20025;-41
2021/06/19 00:53:03;;;;;;;;;;;;;;;;;;3553064;27;20025;-41
2021/06/19 00:54:44;;;;;;;;;;;;;;;;;;3555543;27;19931;-41
2021/06/19 00:56:25;;;;;;;;;;;;;;;;;;3552728;27;20429;-41
2021/06/19 00:58:06;;;;;;;;;;;;;;;;;;3555354;27;19939;-41
2021/06/19 00:59:47;;;;;;;;;;;;;;;;;;3553398;27;19927;-41
2021/06/19 01:01:28;;;;;;;;;;;;;;;;;;3552692;27;20046;-42
2021/06/19 01:03:09;;;;;;;;;;;;;;;;;;3560657;27;19933;-41
2021/06/19 01:04:50;;;;;;;;;;;;;;;;;;3553210;27;19934;-41
2021/06/19 01:06:31;;;;;;;;;;;;;;;;;;3553810;27;20362;-41
2021/06/19 01:08:12;;;;;;;;;;;;;;;;;;3552967;27;19955;-41
2021/06/19 01:09:53;;;;;;;;;;;;;;;;;;3554226;27;20284;-42
2021/06/19 01:11:34;;;;;;;;;;;;;;;;;;3555159;27;19962;-41
2021/06/19 01:13:15;;;;;;;;;;;;;;;;;;3554008;27;20518;-41
2021/06/19 01:14:56;;;;;;;;;;;;;;;;;;3562161;27;19927;-41
2021/06/19 01:16:36;;;;;;;;;;;;;;;;;;3552663;27;20421;-41
2021/06/19 01:18:17;;;;;;;;;;;;;;;;;;3554289;27;19927;-41
2021/06/19 01:19:58;;;;;;;;;;;;;;;;;;3552839;27;20325;-41
2021/06/19 01:21:39;;;;;;;;;;;;;;;;;;3556248;27;19934;-41
2021/06/19 01:23:20;;;;;;;;;;;;;;;;;;3557102;27;19927;-41
2021/06/19 01:25:01;;;;;;;;;;;;;;;;;;3556348;27;20355;-41
2021/06/19 01:26:42;;;;;;;;;;;;;;;;;;3557886;27;19931;-41
2021/06/19 01:28:23;;;;;;;;;;;;;;;;;;3555008;27;19927;-41
2021/06/19 01:30:04;;;;;;;;;;;;;;;;;;3555217;27;19934;-41
2021/06/19 01:31:45;;;;;;;;;;;;;;;;;;3555554;27;20022;-41
2021/06/19 01:33:25;;;;;;;;;;;;;;;;;;3556604;27;20141;-41
2021/06/19 01:35:06;;;;;;;;;;;;;;;;;;3556210;27;20059;-41
2021/06/19 01:36:47;;;;;;;;;;;;;;;;;;3556661;27;20013;-43
2021/06/19 01:38:28;;;;;;;;;;;;;;;;;;3555615;27;19933;-41
2021/06/19 01:40:09;;;;;;;;;;;;;;;;;;3554734;27;20280;-41
2021/06/19 01:41:50;;;;;;;;;;;;;;;;;;3556272;27;20402;-42
2021/06/19 01:43:31;;;;;;;;;;;;;;;;;;3555158;27;19933;-41
2021/06/19 01:45:11;;;;;;;;;;;;;;;;;;3556425;27;19935;-41
2021/06/19 01:46:52;;;;;;;;;;;;;;;;;;3554705;27;19927;-41
2021/06/19 01:48:33;;;;;;;;;;;;;;;;;;3556618;27;20067;-41
2021/06/19 01:50:14;;;;;;;;;;;;;;;;;;3556894;27;19926;-41
2021/06/19 01:51:56;;;;;;;;;;;;;;;;;;3554957;27;19938;-41
2021/06/19 01:53:36;;;;;;;;;;;;;;;;;;3556038;27;20014;-41
2021/06/19 01:55:17;;;;;;;;;;;;;;;;;;3555092;27;19927;-41
2021/06/19 01:56:58;;;;;;;;;;;;;;;;;;3557268;27;20307;-41
2021/06/19 01:58:39;;;;;;;;;;;;;;;;;;3561101;27;20070;-41
2021/06/19 02:00:20;;;;;;;;;;;;;;;;;;3557868;27;20318;-44
2021/06/19 02:02:03;;;;;;;;;;;;;;;;;;3557141;27;19927;-45
2021/06/19 02:03:44;;;;;;;;;;;;;;;;;;3554737;27;20303;-44
2021/06/19 02:05:25;;;;;;;;;;;;;;;;;;3557015;27;20013;-44
2021/06/19 02:07:06;;;;;;;;;;;;;;;;;;3554977;27;19965;-45
2021/06/19 02:08:47;;;;;;;;;;;;;;;;;;3557378;27;19933;-45
2021/06/19 02:10:28;;;;;;;;;;;;;;;;;;3554978;27;19949;-45
2021/06/19 02:12:09;;;;;;;;;;;;;;;;;;3556034;27;19933;-44
2021/06/19 02:13:50;;;;;;;;;;;;;;;;;;3558506;27;19982;-45
2021/06/19 02:15:31;;;;;;;;;;;;;;;;;;3554294;27;20471;-45
2021/06/19 02:17:12;;;;;;;;;;;;;;;;;;3557487;27;19926;-45
2021/06/19 02:18:52;;;;;;;;;;;;;;;;;;3554919;27;19934;-44
2021/06/19 02:20:33;;;;;;;;;;;;;;;;;;3555955;27;19926;-45
2021/06/19 02:22:14;;;;;;;;;;;;;;;;;;3554528;27;19933;-45
2021/06/19 02:23:55;;;;;;;;;;;;;;;;;;3558602;27;19974;-45
2021/06/19 02:25:36;;;;;;;;;;;;;;;;;;3555918;27;19950;-45
2021/06/19 02:27:18;;;;;;;;;;;;;;;;;;3555572;27;19927;-45
2021/06/19 02:28:59;;;;;;;;;;;;;;;;;;3555858;27;19962;-44
2021/06/19 02:30:40;;;;;;;;;;;;;;;;;;3554647;27;20026;-44
2021/06/19 02:32:21;;;;;;;;;;;;;;;;;;3555914;27;19927;-45
2021/06/19 02:34:02;;;;;;;;;;;;;;;;;;3554618;27;20015;-45
2021/06/19 02:35:44;;;;;;;;;;;;;;;;;;3557138;27;19934;-45
2021/06/19 02:37:25;;;;;;;;;;;;;;;;;;3555575;27;19959;-44
2021/06/19 02:39:06;;;;;;;;;;;;;;;;;;3553880;27;19931;-45
2021/06/19 02:40:47;;;;;;;;;;;;;;;;;;3555840;27;19965;-44
2021/06/19 02:42:27;;;;;;;;;;;;;;;;;;3554129;27;19958;-44
2021/06/19 02:44:08;;;;;;;;;;;;;;;;;;3554416;27;19933;-44
2021/06/19 02:45:49;;;;;;;;;;;;;;;;;;3554505;27;20400;-45
2021/06/19 02:47:30;;;;;;;;;;;;;;;;;;3554287;27;19971;-45
2021/06/19 02:49:11;;;;;;;;;;;;;;;;;;3554151;27;19927;-41
2021/06/19 02:50:52;;;;;;;;;;;;;;;;;;3556239;27;20372;-41
2021/06/19 02:52:33;;;;;;;;;;;;;;;;;;3555612;27;19929;-41
2021/06/19 02:54:14;;;;;;;;;;;;;;;;;;3554203;27;20014;-41
2021/06/19 02:55:55;;;;;;;;;;;;;;;;;;3564085;27;20405;-41
2021/06/19 02:57:36;;;;;;;;;;;;;;;;;;3554235;27;19983;-42
2021/06/19 02:59:17;;;;;;;;;;;;;;;;;;3555402;27;19927;-41
2021/06/19 03:00:58;;;;;;;;;;;;;;;;;;3554285;27;20173;-41
2021/06/19 03:02:39;;;;;;;;;;;;;;;;;;3554254;27;19977;-41
2021/06/19 03:04:20;;;;;;;;;;;;;;;;;;3555038;27;19927;-44
2021/06/19 03:06:02;;;;;;;;;;;;;;;;;;3553758;27;19927;-44
2021/06/19 03:07:43;;;;;;;;;;;;;;;;;;3555578;27;19970;-46
2021/06/19 03:09:24;;;;;;;;;;;;;;;;;;3554134;27;20017;-45
2021/06/19 03:11:05;;;;;;;;;;;;;;;;;;3555712;27;20348;-45
2021/06/19 03:12:46;;;;;;;;;;;;;;;;;;3554103;27;20426;-44
2021/06/19 03:14:27;;;;;;;;;;;;;;;;;;3554559;27;19969;-45
2021/06/19 03:16:08;;;;;;;;;;;;;;;;;;3556069;27;19927;-44
2021/06/19 03:17:49;;;;;;;;;;;;;;;;;;3553770;27;20311;-46
2021/06/19 03:19:29;;;;;;;;;;;;;;;;;;3556765;27;20044;-45
2021/06/19 03:21:10;;;;;;;;;;;;;;;;;;3553692;27;19966;-45
2021/06/19 03:22:51;;;;;;;;;;;;;;;;;;3555061;27;19927;-45
2021/06/19 03:24:32;;;;;;;;;;;;;;;;;;3554297;27;19927;-45
2021/06/19 03:26:13;;;;;;;;;;;;;;;;;;3555268;27;19927;-45
2021/06/19 03:27:54;;;;;;;;;;;;;;;;;;3555310;27;19927;-44
2021/06/19 03:29:35;;;;;;;;;;;;;;;;;;3555151;27;20042;-45
2021/06/19 03:31:16;;;;;;;;;;;;;;;;;;3555283;27;20021;-44
2021/06/19 03:32:57;;;;;;;;;;;;;;;;;;3553795;27;19973;-44
2021/06/19 03:34:38;;;;;;;;;;;;;;;;;;3554951;27;20391;-44
2021/06/19 03:36:18;;;;;;;;;;;;;;;;;;3553730;27;19927;-44
2021/06/19 03:38:00;;;;;;;;;;;;;;;;;;3556539;27;19977;-44
2021/06/19 03:39:41;;;;;;;;;;;;;;;;;;3554499;27;20323;-45
2021/06/19 03:41:22;;;;;;;;;;;;;;;;;;3555416;27;19970;-45
2021/06/19 03:43:02;;;;;;;;;;;;;;;;;;3556028;27;19985;-46
2021/06/19 03:44:43;;;;;;;;;;;;;;;;;;3553720;27;19970;-44
2021/06/19 03:46:24;;;;;;;;;;;;;;;;;;3554677;27;19931;-47
2021/06/19 03:48:05;;;;;;;;;;;;;;;;;;3553795;27;19933;-45
2021/06/19 03:49:46;;;;;;;;;;;;;;;;;;3555088;27;19927;-44
2021/06/19 03:51:27;;;;;;;;;;;;;;;;;;3553275;27;19931;-45
2021/06/19 03:53:08;;;;;;;;;;;;;;;;;;3553962;27;19970;-45
2021/06/19 03:54:49;;;;;;;;;;;;;;;;;;3555408;27;19930;-46
2021/06/19 03:56:30;;;;;;;;;;;;;;;;;;3553177;27;19931;-45
2021/06/19 03:58:11;;;;;;;;;;;;;;;;;;3554857;27;19927;-44
2021/06/19 03:59:52;;;;;;;;;;;;;;;;;;3553534;27;20402;-44
2021/06/19 04:01:33;;;;;;;;;;;;;;;;;;3555963;27;20025;-44
2021/06/19 04:03:13;;;;;;;;;;;;;;;;;;3553749;27;19966;-45
2021/06/19 04:04:54;;;;;;;;;;;;;;;;;;3554992;27;19933;-44
2021/06/19 04:06:35;;;;;;;;;;;;;;;;;;3553820;27;19927;-45
2021/06/19 04:08:16;;;;;;;;;;;;;;;;;;3554052;27;20026;-44
2021/06/19 04:09:57;;;;;;;;;;;;;;;;;;3556169;27;19926;-45
2021/06/19 04:11:38;;;;;;;;;;;;;;;;;;3553313;27;19927;-45
2021/06/19 04:13:19;;;;;;;;;;;;;;;;;;3555181;27;19931;-44
2021/06/19 04:15:00;;;;;;;;;;;;;;;;;;3553597;27;20341;-45
2021/06/19 04:16:41;;;;;;;;;;;;;;;;;;3556243;27;19926;-45
2021/06/19 04:18:22;;;;;;;;;;;;;;;;;;3555020;27;19927;-45
2021/06/19 04:20:03;;;;;;;;;;;;;;;;;;3553170;27;20349;-45
2021/06/19 04:21:44;;;;;;;;;;;;;;;;;;3553534;27;19938;-45
2021/06/19 04:23:25;;;;;;;;;;;;;;;;;;3553177;27;20034;-44
2021/06/19 04:25:06;;;;;;;;;;;;;;;;;;3555887;27;19968;-45
2021/06/19 04:26:47;;;;;;;;;;;;;;;;;;3553367;27;20335;-45
2021/06/19 04:28:28;;;;;;;;;;;;;;;;;;3554418;27;19966;-44
2021/06/19 04:30:09;;;;;;;;;;;;;;;;;;3552828;27;19933;-45
2021/06/19 04:31:50;;;;;;;;;;;;;;;;;;3554677;27;19971;-45
2021/06/19 04:33:31;;;;;;;;;;;;;;;;;;3555190;27;20029;-46
2021/06/19 04:35:13;;;;;;;;;;;;;;;;;;3552894;27;19927;-44
2021/06/19 04:36:54;;;;;;;;;;;;;;;;;;3554693;27;19962;-45
2021/06/19 04:38:35;;;;;;;;;;;;;;;;;;3553259;27;20371;-44
2021/06/19 04:40:18;;;;;;;;;;;;;;;;;;3554145;27;19933;-46
2021/06/19 04:42:03;;;;;;;;;;;;;;;;;;3553686;27;19927;-44
2021/06/19 04:44:04;;;;;;;;;;;;;;;;;;3553856;27;19966;-45
2021/06/19 04:45:45;;;;;;;;;;;;;;;;;;3557222;27;19934;-41
2021/06/19 04:47:27;;;;;;;;;;;;;;;;;;3553125;27;20319;-41
2021/06/19 04:49:08;;;;;;;;;;;;;;;;;;3554093;27;19966;-41
2021/06/19 04:50:49;;;;;;;;;;;;;;;;;;3553060;27;19956;-41
2021/06/19 04:52:29;;;;;;;;;;;;;;;;;;3554271;27;19941;-41
2021/06/19 04:54:12;;;;;;;;;;;;;;;;;;3553560;27;19941;-41
2021/06/19 04:55:53;;;;;;;;;;;;;;;;;;3551857;27;20439;-41
2021/06/19 04:57:33;;;;;;;;;;;;;;;;;;3553916;27;19974;-41
2021/06/19 04:59:14;;;;;;;;;;;;;;;;;;3552989;27;19934;-40
2021/06/19 05:00:55;;;;;;;;;;;;;;;;;;3555609;27;19934;-41
2021/06/19 05:02:36;;;;;;;;;;;;;;;;;;3552946;27;20478;-41
2021/06/19 05:04:17;;;;;;;;;;;;;;;;;;3555578;27;19927;-40
2021/06/19 05:05:58;;;;;;;;;;;;;;;;;;3555680;27;20394;-42
2021/06/19 05:07:39;;;;;;;;;;;;;;;;;;3552973;27;19933;-41
2021/06/19 05:09:24;;;;;;;;;;;;;;;;;;3554371;27;20307;-41
2021/06/19 05:11:05;;;;;;;;;;;;;;;;;;3552830;27;19931;-40
2021/06/19 05:12:47;;;;;;;;;;;;;;;;;;3555356;27;20021;-41
2021/06/19 05:14:28;;;;;;;;;;;;;;;;;;3564317;27;20406;-41
2021/06/19 05:16:09;;;;;;;;;;;;;;;;;;3554334;27;19969;-41
2021/06/19 05:17:50;;;;;;;;;;;;;;;;;;3555193;27;20013;-41
2021/06/19 05:19:31;;;;;;;;;;;;;;;;;;3552927;27;19927;-40
2021/06/19 05:21:12;;;;;;;;;;;;;;;;;;3555271;27;19934;-41
2021/06/19 05:22:53;;;;;;;;;;;;;;;;;;3552855;27;19970;-41
2021/06/19 05:24:34;;;;;;;;;;;;;;;;;;3555189;27;19927;-41
2021/06/19 05:26:15;;;;;;;;;;;;;;;;;;3552631;27;20165;-41
2021/06/19 05:27:56;;;;;;;;;;;;;;;;;;3554009;27;19927;-41
2021/06/19 05:29:36;;;;;;;;;;;;;;;;;;3553112;27;20006;-41
2021/06/19 05:31:17;;;;;;;;;;;;;;;;;;3553333;27;19934;-43
2021/06/19 05:32:58;;;;;;;;;;;;;;;;;;3554218;27;19965;-43
2021/06/19 05:34:41;;;;;;;;;;;;;;;;;;3552486;27;20359;-44
2021/06/19 05:36:22;;;;;;;;;;;;;;;;;;3553877;27;20304;-44
2021/06/19 05:38:03;;;;;;;;;;;;;;;;;;3552889;27;19927;-45
2021/06/19 05:39:44;;;;;;;;;;;;;;;;;;3553792;27;20345;-44
2021/06/19 05:41:25;;;;;;;;;;;;;;;;;;3553766;27;19939;-44
2021/06/19 05:43:06;;;;;;;;;;;;;;;;;;3554763;27;20022;-44
2021/06/19 05:44:47;;;;;;;;;;;;;;;;;;3563129;27;19962;-44
2021/06/19 05:46:27;;;;;;;;;;;;;;;;;;3552469;27;19931;-45
2021/06/19 05:48:08;;;;;;;;;;;;;;;;;;3553876;27;19972;-45
2021/06/19 05:49:49;;;;;;;;;;;;;;;;;;3552663;27;19983;-44
2021/06/19 05:51:30;;;;;;;;;;;;;;;;;;3555065;27;20338;-44
2021/06/19 05:53:11;;;;;;;;;;;;;;;;;;3552106;27;19927;-45
2021/06/19 05:54:52;;;;;;;;;;;;;;;;;;3553050;22;19984;-41
2021/06/19 05:56:33;;;;;;;;;;;;;;;;;;3523052;28;20411;-41
2021/06/19 05:58:14;;;;;;;;;;;;;;;;;;3523891;28;19927;-42
2021/06/19 05:59:55;;;;;;;;;;;;;;;;;;3523186;28;20320;-42
2021/06/19 06:01:36;;;;;;;;;;;;;;;;;;3524172;28;19927;-43
2021/06/19 06:03:17;;;;;;;;;;;;;;;;;;3522709;28;20373;-42
2021/06/19 06:04:58;;;;;;;;;;;;;;;;;;3523839;28;19965;-42
2021/06/19 06:06:40;;;;;;;;;;;;;;;;;;3522873;28;19949;-42
2021/06/19 06:08:21;;;;;;;;;;;;;;;;;;3525538;28;19928;-43
2021/06/19 06:10:02;;;;;;;;;;;;;;;;;;3526269;28;19938;-43
2021/06/19 06:11:43;;;;;;;;;;;;;;;;;;3524545;28;19939;-43
2021/06/19 06:13:23;;;;;;;;;;;;;;;;;;3514347;28;19938;-42
2021/06/19 06:15:04;;;;;;;;;;;;;;;;;;3524044;28;20019;-42
2021/06/19 06:16:45;;;;;;;;;;;;;;;;;;3526541;28;20376;-43
2021/06/19 06:18:26;;;;;;;;;;;;;;;;;;3525348;28;20009;-42
2021/06/19 06:20:07;;;;;;;;;;;;;;;;;;3525040;28;19931;-43
2021/06/19 06:21:48;;;;;;;;;;;;;;;;;;3525169;28;19927;-43
2021/06/19 06:23:29;;;;;;;;;;;;;;;;;;3524256;28;19934;-42
2021/06/19 06:25:10;;;;;;;;;;;;;;;;;;3526059;28;20297;-43
2021/06/19 06:26:51;;;;;;;;;;;;;;;;;;3526348;28;20308;-42
2021/06/19 06:28:31;;;;;;;;;;;;;;;;;;3526187;28;19928;-44
2021/06/19 06:30:13;;;;;;;;;;;;;;;;;;3523849;28;19931;-43
2021/06/19 06:31:54;;;;;;;;;;;;;;;;;;3526857;28;19935;-43
2021/06/19 06:33:35;;;;;;;;;;;;;;;;;;3524296;28;20018;-42
2021/06/19 06:35:15;;;;;;;;;;;;;;;;;;3523905;28;19985;-43
2021/06/19 06:36:57;;;;;;;;;;;;;;;;;;3526058;28;19934;-43
2021/06/19 06:38:38;;;;;;;;;;;;;;;;;;3523721;28;19927;-42
2021/06/19 06:40:19;;;;;;;;;;;;;;;;;;3525751;28;20428;-42
2021/06/19 06:42:00;;;;;;;;;;;;;;;;;;3524792;28;20026;-43
2021/06/19 06:43:41;;;;;;;;;;;;;;;;;;3525517;28;19962;-43
2021/06/19 06:45:22;;;;;;;;;;;;;;;;;;3524188;28;20023;-43
2021/06/19 06:47:05;;;;;;;;;;;;;;;;;;3523797;28;19928;-42
2021/06/19 06:48:48;;;;;;;;;;;;;;;;;;3525974;28;19935;-42
2021/06/19 06:50:29;;;;;;;;;;;;;;;;;;3523736;28;19991;-43
2021/06/19 06:52:10;;;;;;;;;;;;;;;;;;3525827;28;19928;-43
2021/06/19 06:53:51;;;;;;;;;;;;;;;;;;3523673;28;20015;-42
2021/06/19 06:55:32;;;;;;;;;;;;;;;;;;3525566;28;20025;-43
2021/06/19 06:57:13;;;;;;;;;;;;;;;;;;3524293;28;20014;-43
2021/06/19 06:58:54;;;;;;;;;;;;;;;;;;3523751;28;19935;-43
2021/06/19 07:00:35;;;;;;;;;;;;;;;;;;3524468;28;19957;-43
2021/06/19 07:02:16;;;;;;;;;;;;;;;;;;3523478;28;20010;-44
2021/06/19 07:03:58;;;;;;;;;;;;;;;;;;3526075;28;19935;-43
2021/06/19 07:05:39;;;;;;;;;;;;;;;;;;3523535;28;19935;-42
2021/06/19 07:07:20;;;;;;;;;;;;;;;;;;3525235;28;20022;-43
2021/06/19 07:09:01;;;;;;;;;;;;;;;;;;3524178;28;19931;-43
2021/06/19 07:10:42;;;;;;;;;;;;;;;;;;3523928;28;20300;-43
2021/06/19 07:12:23;;;;;;;;;;;;;;;;;;3525666;28;20018;-46
2021/06/19 07:14:04;;;;;;;;;;;;;;;;;;3522824;28;19928;-44
2021/06/19 07:15:45;;;;;;;;;;;;;;;;;;3526485;28;20010;-43
2021/06/19 07:17:26;;;;;;;;;;;;;;;;;;3524734;28;20299;-45
2021/06/19 07:19:07;;;;;;;;;;;;;;;;;;3525078;28;20392;-43
2021/06/19 07:20:48;;;;;;;;;;;;;;;;;;3522624;28;19927;-45
2021/06/19 07:22:28;;;;;;;;;;;;;;;;;;3524034;28;19933;-45
2021/06/19 07:24:09;;;;;;;;;;;;;;;;;;3525442;28;20453;-47
2021/06/19 07:25:52;;;;;;;;;;;;;;;;;;3523544;28;19928;-44
2021/06/19 07:27:33;;;;;;;;;;;;;;;;;;3525669;28;19932;-44
2021/06/19 07:29:14;;;;;;;;;;;;;;;;;;3523161;28;19934;-44
2021/06/19 07:30:55;;;;;;;;;;;;;;;;;;3526034;28;19927;-44
2021/06/19 07:32:36;;;;;;;;;;;;;;;;;;3523278;28;20216;-46
2021/06/19 07:34:17;;;;;;;;;;;;;;;;;;3524521;28;19939;-45
2021/06/19 07:35:58;;;;;;;;;;;;;;;;;;3524937;28;20030;-48
2021/06/19 07:37:39;;;;;;;;;;;;;;;;;;3524663;28;20293;-45
2021/06/19 07:39:20;;;;;;;;;;;;;;;;;;3525671;28;20354;-46
2021/06/19 07:41:01;;;;;;;;;;;;;;;;;;3522961;28;20512;-46
2021/06/19 07:42:41;;;;;;;;;;;;;;;;;;3525539;28;19935;-45
2021/06/19 07:44:22;;;;;;;;;;;;;;;;;;3523203;28;20416;-47
2021/06/19 07:46:03;;;;;;;;;;;;;;;;;;3524678;28;19927;-45
2021/06/19 07:47:44;;;;;;;;;;;;;;;;;;3523881;28;19978;-44
2021/06/19 07:49:27;;;;;;;;;;;;;;;;;;3524712;28;19931;-46
2021/06/19 07:51:08;;;;;;;;;;;;;;;;;;3525254;28;19927;-46
2021/06/19 07:52:49;;;;;;;;;;;;;;;;;;3522951;28;20341;-46
2021/06/19 07:54:30;;;;;;;;;;;;;;;;;;3525425;28;19928;-44
2021/06/19 07:56:11;;;;;;;;;;;;;;;;;;3522932;28;19976;-44
2021/06/19 07:57:52;;;;;;;;;;;;;;;;;;3524776;28;19957;-44
2021/06/19 07:59:33;;;;;;;;;;;;;;;;;;3523569;28;19931;-44
2021/06/19 08:01:14;;;;;;;;;;;;;;;;;;3524221;28;20022;-44
2021/06/19 08:02:55;;;;;;;;;;;;;;;;;;3524989;28;19938;-44
2021/06/19 08:04:35;;;;;;;;;;;;;;;;;;3522790;28;19928;-45
2021/06/19 08:06:16;;;;;;;;;;;;;;;;;;3525102;28;20391;-45
2021/06/19 08:07:57;;;;;;;;;;;;;;;;;;3522968;28;19928;-44
2021/06/19 08:09:38;;;;;;;;;;;;;;;;;;3524665;28;19935;-43
2021/06/19 08:11:19;;;;;;;;;;;;;;;;;;3523265;28;20230;-44
2021/06/19 08:13:00;;;;;;;;;;;;;;;;;;3521628;28;20031;-44
2021/06/19 08:14:41;;;;;;;;;;;;;;;;;;3524727;28;19950;-44
2021/06/19 08:16:22;;;;;;;;;;;;;;;;;;3523619;28;19939;-44
2021/06/19 08:18:03;;;;;;;;;;;;;;;;;;3525241;28;19927;-44
2021/06/19 08:19:45;;;;;;;;;;;;;;;;;;3522844;28;19935;-43
2021/06/19 08:21:26;;;;;;;;;;;;;;;;;;3524471;28;19928;-45
2021/06/19 08:23:07;;;;;;;;;;;;;;;;;;3523132;28;20035;-45
2021/06/19 08:24:48;;;;;;;;;;;;;;;;;;3523441;28;20293;-44
2021/06/19 08:26:29;;;;;;;;;;;;;;;;;;3524592;28;19932;-44
2021/06/19 08:28:10;;;;;;;;;;;;;;;;;;3524057;28;19927;-44
2021/06/19 08:29:51;;;;;;;;;;;;;;;;;;3524094;28;19927;-45
2021/06/19 08:31:32;;;;;;;;;;;;;;;;;;3522828;28;20339;-46
2021/06/19 08:33:13;;;;;;;;;;;;;;;;;;3524234;28;20022;-45
2021/06/19 08:34:54;;;;;;;;;;;;;;;;;;3523013;28;19934;-44
2021/06/19 08:36:35;;;;;;;;;;;;;;;;;;3522544;28;20395;-45
2021/06/19 08:38:15;;;;;;;;;;;;;;;;;;3524769;28;20026;-44
2021/06/19 08:39:57;;;;;;;;;;;;;;;;;;3524993;28;19954;-45
2021/06/19 08:41:38;;;;;;;;;;;;;;;;;;3524732;28;19970;-46
2021/06/19 08:43:19;;;;;;;;;;;;;;;;;;3522566;28;19928;-45
2021/06/19 08:45:00;;;;;;;;;;;;;;;;;;3524552;28;20382;-45
2021/06/19 08:46:42;;;;;;;;;;;;;;;;;;3523149;28;20308;-45
2021/06/19 08:48:24;;;;;;;;;;;;;;;;;;3524245;28;19941;-44
2021/06/19 08:50:05;;;;;;;;;;;;;;;;;;3524338;28;19927;-45
2021/06/19 08:51:46;;;;;;;;;;;;;;;;;;3523869;28;19935;-44
2021/06/19 08:53:27;;;;;;;;;;;;;;;;;;3524659;28;19935;-46
2021/06/19 08:55:24;;;;;;;;;;;;;;;;;;3522427;28;20138;-45
2021/06/19 08:57:04;;;;;;;;;;;;;;;;;;3523722;28;20020;-44
2021/06/19 08:58:45;;;;;;;;;;;;;;;;;;3523624;28;19965;-45
2021/06/19 09:00:26;;;;;;;;;;;;;;;;;;3522403;28;19928;-46
2021/06/19 09:02:07;;;;;;;;;;;;;;;;;;3524227;28;20311;-45
2021/06/19 09:03:48;;;;;;;;;;;;;;;;;;3522484;28;20026;-44
2021/06/19 09:05:29;;;;;;;;;;;;;;;;;;3524849;28;19996;-44
2021/06/19 09:07:11;;;;;;;;;;;;;;;;;;3524664;28;19928;-45
2021/06/19 09:08:52;;;;;;;;;;;;;;;;;;3524162;28;19932;-45
2021/06/19 09:10:33;;;;;;;;;;;;;;;;;;3523000;28;19927;-45
2021/06/19 09:12:14;;;;;;;;;;;;;;;;;;3522228;28;20014;-46
2021/06/19 09:13:55;;;;;;;;;;;;;;;;;;3523058;28;19928;-44
2021/06/19 09:15:36;;;;;;;;;;;;;;;;;;3522211;28;19927;-44
2021/06/19 09:17:17;;;;;;;;;;;;;;;;;;3524129;28;20380;-46
2021/06/19 09:18:58;;;;;;;;;;;;;;;;;;3523794;28;19934;-44
2021/06/19 09:20:38;;;;;;;;;;;;;;;;;;3522463;28;20042;-45
2021/06/19 09:22:20;;;;;;;;;;;;;;;;;;3522970;28;19934;-44
2021/06/19 09:24:01;;;;;;;;;;;;;;;;;;3523584;28;20289;-45
2021/06/19 09:25:42;;;;;;;;;;;;;;;;;;3510664;28;20023;-45
2021/06/19 09:27:23;;;;;;;;;;;;;;;;;;3518218;28;19931;-45
2021/06/19 09:29:04;;;;;;;;;;;;;;;;;;3524542;28;19928;-47
2021/06/19 09:30:45;;;;;;;;;;;;;;;;;;3521949;28;20383;-45
2021/06/19 09:32:26;;;;;;;;;;;;;;;;;;3523862;28;19931;-44
2021/06/19 09:34:07;;;;;;;;;;;;;;;;;;3523780;28;19927;-44
2021/06/19 09:35:48;;;;;;;;;;;;;;;;;;3522179;28;19928;-44
2021/06/19 09:37:29;;;;;;;;;;;;;;;;;;3524295;28;19935;-45
2021/06/19 09:39:10;;;;;;;;;;;;;;;;;;3522146;28;19935;-45
2021/06/19 09:40:51;;;;;;;;;;;;;;;;;;3524222;28;20003;-45
2021/06/19 09:42:31;;;;;;;;;;;;;;;;;;3523906;28;19942;-44
2021/06/19 09:44:12;;;;;;;;;;;;;;;;;;3526182;28;19976;-45
2021/06/19 09:45:53;;;;;;;;;;;;;;;;;;3525256;28;19967;-46
2021/06/19 09:47:34;;;;;;;;;;;;;;;;;;3524669;28;19932;-44
2021/06/19 09:49:15;;;;;;;;;;;;;;;;;;3526354;28;20406;-45
2021/06/19 09:50:56;;;;;;;;;;;;;;;;;;3524681;28;19982;-46
2021/06/19 09:52:37;;;;;;;;;;;;;;;;;;3526555;28;19928;-46
2021/06/19 09:54:18;;;;;;;;;;;;;;;;;;3525733;28;19950;-45
2021/06/19 09:55:59;;;;;;;;;;;;;;;;;;3527491;28;19963;-45
2021/06/19 09:57:40;;;;;;;;;;;;;;;;;;3523837;28;19928;-45
2021/06/19 09:59:21;;;;;;;;;;;;;;;;;;3524442;28;19927;-46
2021/06/19 10:01:02;;;;;;;;;;;;;;;;;;3525207;28;19958;-46
2021/06/19 10:02:43;;;;;;;;;;;;;;;;;;3524204;28;19932;-45
2021/06/19 10:04:24;;;;;;;;;;;;;;;;;;3526463;28;19938;-45
2021/06/19 10:06:05;;;;;;;;;;;;;;;;;;3525582;28;19935;-44
2021/06/19 10:07:46;;;;;;;;;;;;;;;;;;3526032;28;19928;-45
2021/06/19 10:09:26;;;;;;;;;;;;;;;;;;3524721;28;19928;-44
2021/06/19 10:11:07;;;;;;;;;;;;;;;;;;3524103;28;19928;-45
2021/06/19 10:12:50;;;;;;;;;;;;;;;;;;3526411;28;20419;-48
2021/06/19 10:14:32;;;;;;;;;;;;;;;;;;3522484;28;20048;-45
2021/06/19 10:16:12;;;;;;;;;;;;;;;;;;3526278;28;20024;-45
2021/06/19 10:17:53;;;;;;;;;;;;;;;;;;3524060;28;19928;-45
2021/06/19 10:19:34;;;;;;;;;;;;;;;;;;3526059;28;19927;-46
2021/06/19 10:21:15;;;;;;;;;;;;;;;;;;3524086;28;20352;-45
2021/06/19 10:22:56;;;;;;;;;;;;;;;;;;3525047;28;19927;-45
2021/06/19 10:24:37;;;;;;;;;;;;;;;;;;3525740;28;19973;-45
2021/06/19 10:26:22;;;;;;;;;;;;;;;;;;3523961;28;19976;-45
2021/06/19 10:28:03;;;;;;;;;;;;;;;;;;3526290;28;19971;-45
2021/06/19 10:29:44;;;;;;;;;;;;;;;;;;3523947;28;20443;-46
2021/06/19 10:31:25;;;;;;;;;;;;;;;;;;3526047;28;20025;-47
2021/06/19 10:33:06;;;;;;;;;;;;;;;;;;3523319;28;19974;-45
2021/06/19 10:34:47;;;;;;;;;;;;;;;;;;3526670;28;19928;-45
2021/06/19 10:36:28;;;;;;;;;;;;;;;;;;3525582;28;20034;-46
2021/06/19 10:38:09;;;;;;;;;;;;;;;;;;3523797;28;20072;-46
2021/06/19 10:39:50;;;;;;;;;;;;;;;;;;3526098;28;19936;-45
2021/06/19 10:41:30;;;;;;;;;;;;;;;;;;3525073;28;20008;-46
2021/06/19 10:43:11;;;;;;;;;;;;;;;;;;3526032;28;19928;-44
2021/06/19 10:44:52;;;;;;;;;;;;;;;;;;3523681;28;19928;-47
2021/06/19 10:46:33;;;;;;;;;;;;;;;;;;3525502;28;19928;-44
2021/06/19 10:48:14;;;;;;;;;;;;;;;;;;3524562;28;19934;-44
2021/06/19 10:49:57;;;;;;;;;;;;;;;;;;3526671;28;19944;-44
2021/06/19 10:51:38;;;;;;;;;;;;;;;;;;3525972;28;20424;-45
2021/06/19 10:53:19;;;;;;;;;;;;;;;;;;3523737;28;19981;-45
2021/06/19 10:55:00;;;;;;;;;;;;;;;;;;3525990;28;20303;-44
2021/06/19 10:56:41;;;;;;;;;;;;;;;;;;3524954;28;19971;-45
2021/06/19 10:58:22;;;;;;;;;;;;;;;;;;3525682;28;19928;-45
2021/06/19 11:00:02;;;;;;;;;;;;;;;;;;3524052;28;20015;-45
2021/06/19 11:01:49;;;;;;;;;;;;;;;;;;3523638;28;20351;-45
2021/06/19 11:03:30;;;;;;;;;;;;;;;;;;3525861;28;19931;-45
2021/06/19 11:05:11;;;;;;;;;;;;;;;;;;3525006;28;19958;-44
2021/06/19 11:06:52;;;;;;;;;;;;;;;;;;3525619;28;20020;-44
2021/06/19 11:08:33;;;;;;;;;;;;;;;;;;3523754;28;19931;-44
2021/06/19 11:10:14;;;;;;;;;;;;;;;;;;3523637;28;20033;-45
2021/06/19 11:11:55;;;;;;;;;;;;;;;;;;3525599;28;19927;-44
2021/06/19 11:13:36;;;;;;;;;;;;;;;;;;3522506;28;19931;-44
2021/06/19 11:15:19;;;;;;;;;;;;;;;;;;3525673;28;19950;-45
2021/06/19 11:17:00;;;;;;;;;;;;;;;;;;3524288;28;20453;-45
2021/06/19 11:18:41;;;;;;;;;;;;;;;;;;3525284;28;19985;-45
2021/06/19 11:20:22;;;;;;;;;;;;;;;;;;3523782;28;19935;-45
2021/06/19 11:22:03;;;;;;;;;;;;;;;;;;3523172;28;20026;-45
2021/06/19 11:23:44;;;;;;;;;;;;;;;;;;3525406;28;19928;-44
2021/06/19 11:25:26;;;;;;;;;;;;;;;;;;3523311;28;20305;-44
2021/06/19 11:27:07;;;;;;;;;;;;;;;;;;3525542;28;19975;-44
2021/06/19 11:28:48;;;;;;;;;;;;;;;;;;3523618;28;19928;-44
2021/06/19 11:30:28;;;;;;;;;;;;;;;;;;3525591;28;19927;-44